createdAt,value
2018-06-15T00:00:56.167Z,4.73
2018-06-15T00:03:24.503Z,4.73
2018-06-15T00:05:52.896Z,5.80
2018-06-15T00:08:21.273Z,8.40
2018-06-15T00:10:49.642Z,6.77
2018-06-15T00:13:18.029Z,7.87
2018-06-15T00:15:46.344Z,4.50
2018-06-15T00:18:14.724Z,5.20
2018-06-15T00:20:43.356Z,8.93
2018-06-15T00:23:11.703Z,5.37
2018-06-15T00:25:40.031Z,6.27
2018-06-15T00:28:08.395Z,5.00
2018-06-15T00:30:36.798Z,5.07
2018-06-15T00:33:05.202Z,5.67
2018-06-15T00:35:33.695Z,4.90
2018-06-15T00:38:01.977Z,5.10
2018-06-15T00:40:30.300Z,5.53
2018-06-15T00:42:58.689Z,6.10
2018-06-15T00:45:27.182Z,5.07
2018-06-15T00:47:55.567Z,5.17
2018-06-15T00:50:23.996Z,7.43
2018-06-15T00:52:52.315Z,7.27
2018-06-15T00:55:20.642Z,6.50
2018-06-15T00:57:49.779Z,5.57
2018-06-15T01:00:18.472Z,6.07
2018-06-15T01:02:47.199Z,4.53
2018-06-15T01:05:15.489Z,5.80
2018-06-15T01:07:43.856Z,5.63
2018-06-15T01:10:12.157Z,5.00
2018-06-15T01:12:40.517Z,5.37
2018-06-15T01:15:08.799Z,5.37
2018-06-15T01:17:38.073Z,6.50
2018-06-15T01:20:06.369Z,7.40
2018-06-15T01:22:34.769Z,7.47
2018-06-15T01:25:03.051Z,5.70
2018-06-15T01:27:31.364Z,5.87
2018-06-15T01:29:59.691Z,5.23
2018-06-15T01:32:28.118Z,6.57
2018-06-15T01:34:56.432Z,6.40
2018-06-15T01:37:24.702Z,6.77
2018-06-15T01:39:53.103Z,6.70
2018-06-15T01:42:21.546Z,6.67
2018-06-15T01:44:56.498Z,5.67
2018-06-15T01:47:24.783Z,7.20
2018-06-15T01:49:53.102Z,7.13
2018-06-15T01:52:21.375Z,8.00
2018-06-15T01:54:49.662Z,5.73
2018-06-15T01:57:18.001Z,6.00
2018-06-15T01:59:46.441Z,7.07
2018-06-15T02:02:14.715Z,6.00
2018-06-15T02:04:42.996Z,5.57
2018-06-15T02:07:11.289Z,6.40
2018-06-15T02:09:39.608Z,6.37
2018-06-15T02:12:07.870Z,8.87
2018-06-15T02:14:36.158Z,6.97
2018-06-15T02:17:04.480Z,6.13
2018-06-15T02:19:32.853Z,6.07
2018-06-15T02:22:01.119Z,6.20
2018-06-15T02:24:29.415Z,6.10
2018-06-15T02:26:57.702Z,5.60
2018-06-15T02:29:26.012Z,5.67
2018-06-15T02:31:54.316Z,6.23
2018-06-15T02:34:22.902Z,6.60
2018-06-15T02:36:51.339Z,6.93
2018-06-15T02:39:19.651Z,5.80
2018-06-15T02:41:47.986Z,5.73
2018-06-15T02:44:16.294Z,6.97
2018-06-15T02:46:44.616Z,6.63
2018-06-15T02:49:12.937Z,6.87
2018-06-15T02:51:41.316Z,6.80
2018-06-15T02:54:09.645Z,6.63
2018-06-15T02:56:37.955Z,8.70
2018-06-15T02:59:06.335Z,6.23
2018-06-15T03:01:34.562Z,5.70
2018-06-15T03:04:02.886Z,5.40
2018-06-15T03:06:31.201Z,9.60
2018-06-15T03:08:59.534Z,5.53
2018-06-15T03:11:29.152Z,6.37
2018-06-15T03:13:59.023Z,6.50
2018-06-15T03:16:28.766Z,5.80
2018-06-15T03:18:57.125Z,6.40
2018-06-15T03:21:25.189Z,7.10
2018-06-15T03:23:53.514Z,9.20
2018-06-15T03:26:21.793Z,5.60
2018-06-15T03:28:50.104Z,5.93
2018-06-15T03:31:18.416Z,6.03
2018-06-15T03:33:46.911Z,7.37
2018-06-15T03:36:15.199Z,6.10
2018-06-15T03:38:43.472Z,5.83
2018-06-15T03:41:11.843Z,8.97
2018-06-15T03:43:40.149Z,7.90
2018-06-15T03:46:08.463Z,6.10
2018-06-15T03:48:36.763Z,6.10
2018-06-15T03:51:05.141Z,8.63
2018-06-15T03:53:33.523Z,7.40
2018-06-15T03:56:01.819Z,7.67
2018-06-15T03:58:30.092Z,8.13
2018-06-15T04:00:58.435Z,7.27
2018-06-15T04:03:26.743Z,6.60
2018-06-15T04:05:55.477Z,6.33
2018-06-15T04:08:23.746Z,6.13
2018-06-15T04:10:52.266Z,6.40
2018-06-15T04:13:20.722Z,7.60
2018-06-15T04:15:49.152Z,8.50
2018-06-15T04:18:17.517Z,9.07
2018-06-15T04:20:45.823Z,7.60
2018-06-15T04:23:14.105Z,6.13
2018-06-15T04:25:42.419Z,10.90
2018-06-15T04:28:10.702Z,7.83
2018-06-15T04:30:39.068Z,8.13
2018-06-15T04:33:07.388Z,7.83
2018-06-15T04:35:35.674Z,7.10
2018-06-15T04:38:03.944Z,8.23
2018-06-15T04:40:32.228Z,8.57
2018-06-15T04:43:00.516Z,8.80
2018-06-15T04:45:28.829Z,8.37
2018-06-15T04:47:57.276Z,7.47
2018-06-15T04:50:25.643Z,7.70
2018-06-15T04:52:54.551Z,6.37
2018-06-15T04:55:22.910Z,8.77
2018-06-15T04:57:51.307Z,6.33
2018-06-15T05:00:19.619Z,7.13
2018-06-15T05:02:47.971Z,11.93
2018-06-15T05:05:16.013Z,7.23
2018-06-15T05:07:44.279Z,8.30
2018-06-15T05:10:12.592Z,6.97
2018-06-15T05:12:40.961Z,9.67
2018-06-15T05:15:09.266Z,8.00
2018-06-15T05:17:37.655Z,6.80
2018-06-15T05:20:06.343Z,7.80
2018-06-15T05:22:34.686Z,9.17
2018-06-15T05:25:03.079Z,9.43
2018-06-15T05:27:31.386Z,9.57
2018-06-15T05:29:59.736Z,14.87
2018-06-15T05:32:28.023Z,9.47
2018-06-15T05:34:56.465Z,12.17
2018-06-15T05:37:24.795Z,9.43
2018-06-15T05:39:53.124Z,9.90
2018-06-15T05:42:21.471Z,10.73
2018-06-15T05:44:49.815Z,11.10
2018-06-15T05:47:18.170Z,11.90
2018-06-15T05:49:46.573Z,13.83
2018-06-15T05:52:15.086Z,7.67
2018-06-15T05:54:44.047Z,12.23
2018-06-15T05:57:12.361Z,15.00
2018-06-15T05:59:40.704Z,8.83
2018-06-15T06:02:09.119Z,10.17
2018-06-15T06:04:37.447Z,11.47
2018-06-15T06:07:05.899Z,10.60
2018-06-15T06:09:34.228Z,8.10
2018-06-15T06:12:02.732Z,8.83
2018-06-15T06:14:31.222Z,10.40
2018-06-15T06:16:59.571Z,10.80
2018-06-15T06:19:27.980Z,8.87
2018-06-15T06:21:56.378Z,12.77
2018-06-15T06:24:24.683Z,10.43
2018-06-15T06:26:53.043Z,8.93
2018-06-15T06:29:21.362Z,8.43
2018-06-15T06:31:49.697Z,12.00
2018-06-15T06:34:18.072Z,8.57
2018-06-15T06:36:46.721Z,11.23
2018-06-15T06:39:15.111Z,9.63
2018-06-15T06:41:43.537Z,16.23
2018-06-15T06:44:11.843Z,8.70
2018-06-15T06:46:40.675Z,8.13
2018-06-15T06:49:09.130Z,10.13
2018-06-15T06:51:42.351Z,10.53
2018-06-15T06:54:10.957Z,8.27
2018-06-15T06:56:39.311Z,12.97
2018-06-15T06:59:07.893Z,9.57
2018-06-15T07:01:36.417Z,9.57
2018-06-15T07:04:04.693Z,14.10
2018-06-15T07:06:33.092Z,9.60
2018-06-15T07:09:01.637Z,9.07
2018-06-15T07:11:29.968Z,8.50
2018-06-15T07:13:58.439Z,9.43
2018-06-15T07:16:27.160Z,10.47
2018-06-15T07:18:55.555Z,10.77
2018-06-15T07:21:23.901Z,13.83
2018-06-15T07:23:52.445Z,10.47
2018-06-15T07:26:20.875Z,12.53
2018-06-15T07:28:49.317Z,10.30
2018-06-15T07:31:17.902Z,8.67
2018-06-15T07:33:46.446Z,11.50
2018-06-15T07:36:14.868Z,10.33
2018-06-15T07:38:43.245Z,9.83
2018-06-15T07:41:11.552Z,9.03
2018-06-15T07:43:40.195Z,10.23
2018-06-15T07:46:09.139Z,11.60
2018-06-15T07:48:37.438Z,8.23
2018-06-15T07:51:05.868Z,12.27
2018-06-15T07:53:34.179Z,15.43
2018-06-15T07:56:02.500Z,12.30
2018-06-15T07:58:30.793Z,8.50
2018-06-15T08:00:59.280Z,7.50
2018-06-15T08:03:27.746Z,9.80
2018-06-15T08:05:56.091Z,14.60
2018-06-15T08:08:24.423Z,8.87
2018-06-15T08:10:52.765Z,7.13
2018-06-15T08:13:21.235Z,14.47
2018-06-15T08:15:49.593Z,15.07
2018-06-15T08:18:17.903Z,10.67
2018-06-15T08:20:46.188Z,13.43
2018-06-15T08:23:14.555Z,10.23
2018-06-15T08:25:43.001Z,10.23
2018-06-15T08:28:11.421Z,11.57
2018-06-15T08:30:39.792Z,10.27
2018-06-15T08:33:08.274Z,9.70
2018-06-15T08:35:36.761Z,13.20
2018-06-15T08:38:06.114Z,10.87
2018-06-15T08:40:34.434Z,14.17
2018-06-15T08:43:02.822Z,10.07
2018-06-15T08:45:31.368Z,9.00
2018-06-15T08:47:59.760Z,9.43
2018-06-15T08:50:28.209Z,10.90
2018-06-15T08:52:56.561Z,8.93
2018-06-15T08:55:26.013Z,9.67
2018-06-15T08:57:54.885Z,6.40
2018-06-15T09:00:23.299Z,9.70
2018-06-15T09:02:51.788Z,7.53
2018-06-15T09:05:20.073Z,10.37
2018-06-15T09:07:48.411Z,9.10
2018-06-15T09:10:16.769Z,7.37
2018-06-15T09:12:45.133Z,9.07
2018-06-15T09:15:13.459Z,5.40
2018-06-15T09:20:10.083Z,7.07
2018-06-15T09:22:38.707Z,8.20
2018-06-15T09:25:07.065Z,8.93
2018-06-15T09:27:35.519Z,6.90
2018-06-15T09:30:04.195Z,7.17
2018-06-15T09:32:32.238Z,6.57
2018-06-15T09:35:00.602Z,5.60
2018-06-15T09:37:29.386Z,6.17
2018-06-15T09:39:57.717Z,5.73
2018-06-15T09:42:26.146Z,6.90
2018-06-15T09:44:54.703Z,4.23
2018-06-15T09:47:23.188Z,4.23
2018-06-15T09:49:51.540Z,5.77
2018-06-15T09:52:19.973Z,8.07
2018-06-15T09:54:48.459Z,5.43
2018-06-15T09:57:16.840Z,5.67
2018-06-15T09:59:45.296Z,4.57
2018-06-15T10:02:13.635Z,4.23
2018-06-15T10:04:41.716Z,5.63
2018-06-15T10:07:10.974Z,3.80
2018-06-15T10:09:39.293Z,5.53
2018-06-15T10:12:07.409Z,4.40
2018-06-15T10:14:35.691Z,4.10
2018-06-15T10:17:04.051Z,4.40
2018-06-15T10:19:32.830Z,7.57
2018-06-15T10:24:35.788Z,4.33
2018-06-15T10:27:04.205Z,5.57
2018-06-15T10:29:32.487Z,4.30
2018-06-15T10:32:01.079Z,4.10
2018-06-15T10:34:29.454Z,6.43
2018-06-15T10:36:57.907Z,5.17
2018-06-15T10:39:26.073Z,4.00
2018-06-15T10:41:54.322Z,4.87
2018-06-15T10:44:22.777Z,5.00
2018-06-15T10:46:51.248Z,3.87
2018-06-15T10:49:19.610Z,3.87
2018-06-15T10:51:47.914Z,3.53
2018-06-15T10:54:16.335Z,4.40
2018-06-15T10:56:44.643Z,5.17
2018-06-15T10:59:12.957Z,4.00
2018-06-15T11:01:41.362Z,4.20
2018-06-15T11:04:09.450Z,5.40
2018-06-15T11:06:37.470Z,4.20
2018-06-15T11:09:07.456Z,3.80
2018-06-15T11:11:35.462Z,6.13
2018-06-15T11:14:04.091Z,4.90
2018-06-15T11:16:32.090Z,4.83
2018-06-15T11:19:00.406Z,6.40
2018-06-15T11:21:29.476Z,4.27
2018-06-15T11:23:57.799Z,5.17
2018-06-15T11:26:26.099Z,4.07
2018-06-15T11:28:54.687Z,5.53
2018-06-15T11:31:22.971Z,3.90
2018-06-15T11:33:51.276Z,4.00
2018-06-15T11:36:19.562Z,7.27
2018-06-15T11:38:47.937Z,3.57
2018-06-15T11:41:16.566Z,9.30
2018-06-15T11:43:44.855Z,4.37
2018-06-15T11:46:13.140Z,5.10
2018-06-15T11:48:41.448Z,3.57
2018-06-15T11:51:09.720Z,5.27
2018-06-15T11:53:38.103Z,6.33
2018-06-15T11:56:06.247Z,5.00
2018-06-15T11:58:34.553Z,4.10
2018-06-15T12:01:03.003Z,5.23
2018-06-15T12:03:31.311Z,11.40
2018-06-15T12:05:59.611Z,5.93
2018-06-15T12:08:27.930Z,7.60
2018-06-15T12:10:56.219Z,4.80
2018-06-15T12:13:24.523Z,5.83
2018-06-15T12:15:52.875Z,5.30
2018-06-15T12:18:21.200Z,6.53
2018-06-15T12:20:49.453Z,6.70
2018-06-15T12:23:17.748Z,4.63
2018-06-15T12:25:45.792Z,5.43
2018-06-15T12:28:14.115Z,4.47
2018-06-15T12:30:42.419Z,4.03
2018-06-15T12:33:10.921Z,4.20
2018-06-15T12:35:39.220Z,5.17
2018-06-15T12:38:07.539Z,3.50
2018-06-15T12:40:35.810Z,4.90
2018-06-15T12:43:04.099Z,5.67
2018-06-15T12:45:32.367Z,3.47
2018-06-15T12:48:00.703Z,5.03
2018-06-15T12:50:28.997Z,4.83
2018-06-15T12:52:57.278Z,5.57
2018-06-15T12:55:25.332Z,4.50
2018-06-15T12:57:53.629Z,5.57
2018-06-15T13:00:21.920Z,6.23
2018-06-15T13:02:50.208Z,4.47
2018-06-15T13:05:18.600Z,4.20
2018-06-15T13:07:49.931Z,4.33
2018-06-15T13:10:18.234Z,4.93
2018-06-15T13:12:46.541Z,4.40
2018-06-15T13:15:14.884Z,7.23
2018-06-15T13:17:43.221Z,5.33
2018-06-15T13:20:11.612Z,5.57
2018-06-15T13:22:39.894Z,8.57
2018-06-15T13:25:08.202Z,6.73
2018-06-15T13:27:36.539Z,4.90
2018-06-15T13:30:04.848Z,6.77
2018-06-15T13:32:33.135Z,3.97
2018-06-15T13:35:01.450Z,7.20
2018-06-15T13:37:29.731Z,9.00
2018-06-15T13:39:58.070Z,4.80
2018-06-15T13:42:26.371Z,3.90
2018-06-15T13:44:54.478Z,4.67
2018-06-15T13:47:22.785Z,6.77
2018-06-15T13:49:51.119Z,4.90
2018-06-15T13:52:19.403Z,5.00
2018-06-15T13:54:47.725Z,5.30
2018-06-15T13:57:16.014Z,4.83
2018-06-15T13:59:44.376Z,5.10
2018-06-15T14:02:12.840Z,6.90
2018-06-15T14:04:41.120Z,5.73
2018-06-15T14:07:09.479Z,7.77
2018-06-15T14:09:37.796Z,5.90
2018-06-15T14:12:06.145Z,4.00
2018-06-15T14:14:34.483Z,4.63
2018-06-15T14:17:02.807Z,4.87
2018-06-15T14:19:31.156Z,6.67
2018-06-15T14:21:59.454Z,7.33
2018-06-15T14:24:28.113Z,3.57
2018-06-15T14:26:56.426Z,5.03
2018-06-15T14:29:24.778Z,4.13
2018-06-15T14:31:53.109Z,3.07
2018-06-15T14:34:21.444Z,3.97
2018-06-15T14:36:49.768Z,3.80
2018-06-15T14:39:17.795Z,4.90
2018-06-15T14:41:46.150Z,4.83
2018-06-15T14:44:14.444Z,3.63
2018-06-15T14:46:42.779Z,3.80
2018-06-15T14:49:10.806Z,4.90
2018-06-15T14:51:39.075Z,4.33
2018-06-15T14:54:07.399Z,23.07
2018-06-15T14:56:35.714Z,5.23
2018-06-15T14:59:04.004Z,4.93
2018-06-15T15:01:32.274Z,3.27
2018-06-15T15:04:00.600Z,4.07
2018-06-15T15:06:28.901Z,4.70
2018-06-15T15:08:57.247Z,3.50
2018-06-15T15:11:25.695Z,5.50
2018-06-15T15:13:53.991Z,3.27
2018-06-15T15:16:22.282Z,3.77
2018-06-15T15:18:50.917Z,2.97
2018-06-15T15:21:19.216Z,3.87
2018-06-15T15:23:47.560Z,4.17
2018-06-15T15:26:15.864Z,4.47
2018-06-15T15:28:44.243Z,3.77
2018-06-15T15:31:12.700Z,4.03
2018-06-15T15:33:40.998Z,3.37
2018-06-15T15:36:09.319Z,3.83
2018-06-15T15:38:37.629Z,4.67
2018-06-15T15:41:06.045Z,3.63
2018-06-15T15:43:34.361Z,5.23
2018-06-15T15:46:02.632Z,4.93
2018-06-15T15:48:30.911Z,6.13
2018-06-15T15:50:59.312Z,3.13
2018-06-15T15:53:27.652Z,6.13
2018-06-15T15:55:55.971Z,4.03
2018-06-15T15:58:24.256Z,3.53
2018-06-15T16:00:52.660Z,5.50
2018-06-15T16:03:20.954Z,10.30
2018-06-15T16:05:49.302Z,5.20
2018-06-15T16:08:17.618Z,6.10
2018-06-15T16:10:45.663Z,7.53
2018-06-15T16:13:14.020Z,4.90
2018-06-15T16:15:42.343Z,10.73
2018-06-15T16:18:10.387Z,5.23
2018-06-15T16:20:38.739Z,3.90
2018-06-15T16:23:07.040Z,3.20
2018-06-15T16:25:35.336Z,5.67
2018-06-15T16:28:03.658Z,3.73
2018-06-15T16:30:31.946Z,4.77
2018-06-15T16:33:00.242Z,3.60
2018-06-15T16:35:28.592Z,4.90
2018-06-15T16:37:57.024Z,7.23
2018-06-15T16:40:25.326Z,3.57
2018-06-15T16:42:53.676Z,5.23
2018-06-15T16:45:21.987Z,3.80
2018-06-15T16:47:50.279Z,3.40
2018-06-15T16:50:18.604Z,2.93
2018-06-15T16:52:47.907Z,3.33
2018-06-15T16:55:16.223Z,4.17
2018-06-15T16:57:44.553Z,7.50
2018-06-15T17:00:12.999Z,4.67
2018-06-15T17:02:41.477Z,3.30
2018-06-15T17:05:09.793Z,8.53
2018-06-15T17:07:38.146Z,12.97
2018-06-15T17:10:06.441Z,3.70
2018-06-15T17:12:34.770Z,3.80
2018-06-15T17:15:03.122Z,3.20
2018-06-15T17:17:31.410Z,5.23
2018-06-15T17:20:00.197Z,3.10
2018-06-15T17:22:28.495Z,5.60
2018-06-15T17:24:56.777Z,3.83
2018-06-15T17:27:25.096Z,6.40
2018-06-15T17:29:53.423Z,4.60
2018-06-15T17:32:21.768Z,4.07
2018-06-15T17:34:50.123Z,4.73
2018-06-15T17:37:18.425Z,4.23
2018-06-15T17:39:46.778Z,6.43
2018-06-15T17:42:15.191Z,4.47
2018-06-15T17:44:43.482Z,5.53
2018-06-15T17:47:11.786Z,7.47
2018-06-15T17:49:40.269Z,3.50
2018-06-15T17:52:08.705Z,3.43
2018-06-15T17:54:37.032Z,4.37
2018-06-15T17:57:05.595Z,3.90
2018-06-15T17:59:33.947Z,3.80
2018-06-15T18:02:02.568Z,3.37
2018-06-15T18:04:31.027Z,3.40
2018-06-15T18:06:59.372Z,3.97
2018-06-15T18:09:27.707Z,4.47
2018-06-15T18:11:56.111Z,4.10
2018-06-15T18:14:24.465Z,3.70
2018-06-15T18:16:53.186Z,11.60
2018-06-15T18:19:21.568Z,22.97
2018-06-15T18:21:50.219Z,8.33
2018-06-15T18:24:18.996Z,4.90
2018-06-15T18:26:47.980Z,5.97
2018-06-15T18:29:16.340Z,9.60
2018-06-15T18:31:44.819Z,5.23
2018-06-15T18:34:14.179Z,4.67
2018-06-15T18:36:42.657Z,5.30
2018-06-15T18:39:13.389Z,4.70
2018-06-15T18:41:43.439Z,4.77
2018-06-15T18:44:12.222Z,5.27
2018-06-15T18:46:40.570Z,5.43
2018-06-15T18:49:10.058Z,6.83
2018-06-15T18:51:39.085Z,5.20
2018-06-15T18:54:07.755Z,6.97
2018-06-15T18:56:36.712Z,5.67
2018-06-15T18:59:05.036Z,10.27
2018-06-15T19:01:33.694Z,6.53
2018-06-15T19:04:02.095Z,8.67
2018-06-15T19:06:30.514Z,6.63
2018-06-15T19:08:59.123Z,8.53
2018-06-15T19:11:27.726Z,5.80
2018-06-15T19:13:56.028Z,5.87
2018-06-15T19:16:24.438Z,4.90
2018-06-15T19:18:52.448Z,9.93
2018-06-15T19:21:20.787Z,7.17
2018-06-15T19:23:49.079Z,6.87
2018-06-15T19:26:17.594Z,5.80
2018-06-15T19:28:45.936Z,5.43
2018-06-15T19:31:14.254Z,5.70
2018-06-15T19:33:42.587Z,8.50
2018-06-15T19:36:10.948Z,4.57
2018-06-15T19:38:39.352Z,5.70
2018-06-15T19:41:07.666Z,4.93
2018-06-15T19:43:36.042Z,5.50
2018-06-15T19:46:04.482Z,7.57
2018-06-15T19:48:32.535Z,6.00
2018-06-15T19:51:00.875Z,6.73
2018-06-15T19:53:29.201Z,7.23
2018-06-15T19:55:57.483Z,9.07
2018-06-15T19:58:25.860Z,5.83
2018-06-15T20:00:54.176Z,6.80
2018-06-15T20:03:22.557Z,5.23
2018-06-15T20:05:50.968Z,6.40
2018-06-15T20:08:19.427Z,5.83
2018-06-15T20:10:47.777Z,12.43
2018-06-15T20:13:16.096Z,7.73
2018-06-15T20:15:44.400Z,7.03
2018-06-15T20:18:12.805Z,5.77
2018-06-15T20:20:41.130Z,5.70
2018-06-15T20:23:09.587Z,6.70
2018-06-15T20:25:37.906Z,7.83
2018-06-15T20:28:06.318Z,7.80
2018-06-15T20:30:34.600Z,6.23
2018-06-15T20:33:03.027Z,6.77
2018-06-15T20:35:31.392Z,8.40
2018-06-15T20:37:59.759Z,9.03
2018-06-15T20:40:28.106Z,9.63
2018-06-15T20:42:56.477Z,7.10
2018-06-15T20:45:24.922Z,5.67
2018-06-15T20:47:53.256Z,6.50
2018-06-15T20:50:21.552Z,10.23
2018-06-15T20:52:49.942Z,8.40
2018-06-15T20:55:18.332Z,6.97
2018-06-15T20:57:46.686Z,9.03
2018-06-15T21:00:14.982Z,7.20
2018-06-15T21:02:43.342Z,9.30
2018-06-15T21:05:11.636Z,7.63
2018-06-15T21:07:39.930Z,6.93
2018-06-15T21:10:08.346Z,13.00
2018-06-15T21:12:36.671Z,8.93
2018-06-15T21:15:05.029Z,6.33
2018-06-15T21:17:33.383Z,9.93
2018-06-15T21:20:01.787Z,9.73
2018-06-15T21:22:30.131Z,7.40
2018-06-15T21:24:58.412Z,7.57
2018-06-15T21:27:26.737Z,8.10
2018-06-15T21:29:55.139Z,10.27
2018-06-15T21:32:23.485Z,9.03
2018-06-15T21:34:51.844Z,11.53
2018-06-15T21:37:20.184Z,10.60
2018-06-15T21:39:48.478Z,7.30
2018-06-15T21:42:17.106Z,9.20
2018-06-15T21:44:45.436Z,8.83
2018-06-15T21:47:13.760Z,9.57
2018-06-15T21:49:42.053Z,12.80
2018-06-15T21:52:10.425Z,9.50
2018-06-15T21:54:38.873Z,8.17
2018-06-15T21:57:07.452Z,9.40
2018-06-15T21:59:35.860Z,10.50
2018-06-15T22:02:04.628Z,11.10
2018-06-15T22:04:33.028Z,9.17
2018-06-15T22:07:02.172Z,9.47
2018-06-15T22:09:30.507Z,10.33
2018-06-15T22:11:58.840Z,11.57
2018-06-15T22:14:27.844Z,9.10
2018-06-15T22:16:56.292Z,12.30
2018-06-15T22:19:24.881Z,9.60
2018-06-15T22:21:54.199Z,10.73
2018-06-15T22:24:23.437Z,10.60
2018-06-15T22:26:53.199Z,9.87
2018-06-15T22:29:21.687Z,12.00
2018-06-15T22:31:50.098Z,11.57
2018-06-15T22:34:18.584Z,10.70
2018-06-15T22:36:47.223Z,8.73
2018-06-15T22:39:16.481Z,10.83
2018-06-15T22:41:44.961Z,10.70
2018-06-15T22:44:13.827Z,12.53
2018-06-15T22:46:42.747Z,13.13
2018-06-15T22:49:11.597Z,9.13
2018-06-15T22:51:40.652Z,10.30
2018-06-15T22:54:08.967Z,9.83
2018-06-15T22:56:37.347Z,13.90
2018-06-15T22:59:05.688Z,11.00
2018-06-15T23:01:34.001Z,12.77
2018-06-15T23:04:02.345Z,10.80
2018-06-15T23:06:30.630Z,9.30
2018-06-15T23:08:58.939Z,14.80
2018-06-15T23:11:27.240Z,12.23
2018-06-15T23:13:55.588Z,13.53
2018-06-15T23:16:23.867Z,10.57
2018-06-15T23:18:52.163Z,11.60
2018-06-15T23:21:20.470Z,12.37
2018-06-15T23:23:48.795Z,11.00
2018-06-15T23:26:17.080Z,10.67
2018-06-15T23:28:45.430Z,8.63
2018-06-15T23:31:13.732Z,11.03
2018-06-15T23:33:42.045Z,10.23
2018-06-15T23:36:10.325Z,11.77
2018-06-15T23:38:38.631Z,9.47
2018-06-15T23:41:06.942Z,11.67
2018-06-15T23:43:35.288Z,9.33
2018-06-15T23:46:03.632Z,10.50
2018-06-15T23:48:32.090Z,9.17
2018-06-15T23:51:00.516Z,9.03
2018-06-15T23:53:28.845Z,11.03
2018-06-15T23:55:57.127Z,9.53
2018-06-15T23:58:25.471Z,9.67
